KMIE/MIE METAR and TAF weather

Enter ICAO airport designator
Station Type Date Time Source
KMIE METAR 2021/05/14 11:53 UTC NOAA

KMIE 141153Z 00000KT 10SM CLR 10/05 A3036 RMK AO2 SLP277 T01000050 10100 20056 53013


Station Type Date Time Source
KMIE Decoded METAR 2021/05/14 11:53 UTC NOAA

MUNCIE DELAWARE JOHNSON, IN, United States (KMIE) 40-14N 85-24W 285M
May 14, 2021 - 07:53 AM EDT / 2021.05.14 1153 UTC
Wind: Calm:0
Visibility: 10 mile(s):0
Sky conditions: clear
Temperature: 50.0 F (10.0 C)
Dew Point: 41.0 F (5.0 C)
Relative Humidity: 71%
Pressure (altimeter): 30.36 in. Hg (1028 hPa)
Pressure tendency: 0.04 inches (1.3 hPa) higher than three hours ago
ob: KMIE 141153Z 00000KT 10SM CLR 10/05 A3036 RMK AO2 SLP277 T01000050 10100 20056 53013
cycle: 12

Station Type Date Time Source
KMIE TAF UTC NOAA

Error!

Example: see airport list